Time;durP1;ratioP1;P1;durP2;ratioP2;P2;SDS_P1;SDS_P2;PMS_P1;PMS_P2;Temp;Humidity;BMP_temperature;BMP_pressure;BME280_temperature;BME280_humidity;BME280_pressure;Samples;Min_cycle;Max_cycle;Signal;HPM_P1;HPM_P2
2023/12/02 00:02:05;;;;;;;77.90;24.60;;;-0.80;99.90;;;;;;5013343;28;20039;-69
2023/12/02 00:04:31;;;;;;;70.85;25.70;;;-0.80;99.90;;;;;;5013241;28;20030;-71
2023/12/02 00:06:56;;;;;;;75.53;25.30;;;-0.80;99.90;;;;;;5012842;28;20057;-70
2023/12/02 00:09:22;;;;;;;72.13;24.58;;;-0.80;99.90;;;;;;5012939;28;20030;-70
2023/12/02 00:11:50;;;;;;;78.28;26.15;;;-0.80;99.90;;;;;;5012797;28;20060;-71
2023/12/02 00:14:16;;;;;;;76.45;26.38;;;-0.80;99.90;;;;;;5012782;28;20041;-70
2023/12/02 00:16:42;;;;;;;72.85;26.00;;;-0.80;99.90;;;;;;5012784;28;20038;-72
2023/12/02 00:19:07;;;;;;;72.75;25.70;;;-0.80;99.90;;;;;;5012424;28;20030;-73
2023/12/02 00:21:33;;;;;;;77.15;26.45;;;-0.90;99.90;;;;;;5012287;28;20125;-71
2023/12/02 00:23:59;;;;;;;82.55;26.25;;;-0.80;99.90;;;;;;5012190;28;20064;-69
2023/12/02 00:26:24;;;;;;;81.38;26.48;;;-0.80;99.90;;;;;;5011979;28;20420;-72
2023/12/02 00:28:50;;;;;;;81.78;26.73;;;-0.70;99.90;;;;;;5010433;28;20057;-71
2023/12/02 00:31:16;;;;;;;82.22;27.40;;;-0.70;99.90;;;;;;5012850;28;20026;-70
2023/12/02 00:33:42;;;;;;;80.63;27.02;;;-0.70;99.90;;;;;;5012882;28;20030;-70
2023/12/02 00:36:08;;;;;;;78.07;25.92;;;-0.70;99.90;;;;;;5010586;28;20062;-72
2023/12/02 00:38:34;;;;;;;84.50;28.50;;;-0.70;99.90;;;;;;5012019;28;20022;-72
2023/12/02 00:41:00;;;;;;;81.68;28.05;;;-0.70;99.90;;;;;;5011336;28;20120;-70
2023/12/02 00:43:26;;;;;;;81.32;26.42;;;-0.60;99.90;;;;;;5011159;28;20033;-70
2023/12/02 00:45:51;;;;;;;78.75;26.30;;;-0.60;99.90;;;;;;5012120;28;20026;-70
2023/12/02 00:48:17;;;;;;;89.55;28.77;;;-0.60;99.90;;;;;;5011611;28;20037;-71
2023/12/02 00:50:42;;;;;;;90.50;27.85;;;-0.60;99.90;;;;;;5010916;28;20030;-72
2023/12/02 00:53:08;;;;;;;79.05;27.08;;;-0.60;99.90;;;;;;5011466;28;20053;-71
2023/12/02 00:55:34;;;;;;;82.70;27.77;;;-0.50;99.90;;;;;;5011752;28;20033;-71
2023/12/02 00:58:00;;;;;;;89.97;28.17;;;-0.60;99.90;;;;;;5011915;28;20483;-71
2023/12/02 01:00:25;;;;;;;90.50;29.73;;;-0.60;99.90;;;;;;5011483;28;20022;-69
2023/12/02 01:02:51;;;;;;;82.60;27.80;;;-0.50;99.90;;;;;;5011544;28;20040;-68
2023/12/02 01:05:17;;;;;;;85.35;28.85;;;-0.60;99.90;;;;;;5011930;28;20037;-69
2023/12/02 01:07:43;;;;;;;86.32;28.25;;;-0.60;99.90;;;;;;5010573;28;20026;-68
2023/12/02 01:10:12;;;;;;;94.00;28.77;;;-0.60;99.90;;;;;;5011057;28;20040;-69
2023/12/02 01:12:40;;;;;;;87.18;28.48;;;-0.60;99.90;;;;;;5011643;28;20082;-71
2023/12/02 01:15:06;;;;;;;89.00;29.20;;;-0.60;99.90;;;;;;5010658;28;20033;-70
2023/12/02 01:17:32;;;;;;;87.88;29.60;;;-0.60;99.90;;;;;;5011451;28;20030;-70
2023/12/02 01:19:57;;;;;;;95.57;30.42;;;-0.60;99.90;;;;;;5011427;28;20113;-70
2023/12/02 01:22:23;;;;;;;100.35;29.80;;;-0.60;99.90;;;;;;5011321;28;20045;-72
2023/12/02 01:24:49;;;;;;;97.85;30.10;;;-0.50;99.90;;;;;;5010852;28;20029;-70
2023/12/02 01:27:14;;;;;;;88.68;29.55;;;-0.50;99.90;;;;;;5011087;28;20083;-70
2023/12/02 01:29:40;;;;;;;92.30;30.50;;;-0.60;99.90;;;;;;5011456;28;20022;-69
2023/12/02 01:32:06;;;;;;;93.22;29.75;;;-0.60;99.90;;;;;;5009317;28;20030;-70
2023/12/02 01:34:31;;;;;;;90.35;29.70;;;-0.60;99.90;;;;;;5011297;28;20038;-69
2023/12/02 01:36:57;;;;;;;98.78;31.65;;;-0.50;99.90;;;;;;5011720;28;20041;-69
2023/12/02 01:39:22;;;;;;;94.88;29.20;;;-0.50;99.90;;;;;;5012242;28;20109;-68
2023/12/02 01:41:48;;;;;;;93.53;29.52;;;-0.50;99.90;;;;;;5011915;28;20045;-70
2023/12/02 01:44:14;;;;;;;86.95;28.70;;;-0.50;99.90;;;;;;5010727;28;20026;-69
2023/12/02 01:46:41;;;;;;;86.28;28.25;;;-0.50;99.90;;;;;;5012127;28;20065;-70
2023/12/02 01:49:09;;;;;;;94.78;30.67;;;-0.50;99.90;;;;;;5010842;28;20030;-71
2023/12/02 01:51:35;;;;;;;88.25;29.98;;;-0.50;99.90;;;;;;5012315;28;20042;-70
2023/12/02 01:54:01;;;;;;;93.38;29.63;;;-0.50;99.90;;;;;;5011796;28;20052;-70
2023/12/02 01:56:27;;;;;;;90.50;29.92;;;-0.50;99.90;;;;;;5012000;28;20026;-71
2023/12/02 01:58:52;;;;;;;85.88;27.83;;;-0.50;99.90;;;;;;5011558;28;20049;-71
2023/12/02 02:01:18;;;;;;;97.03;31.17;;;-0.50;99.90;;;;;;5007653;28;20034;-69
2023/12/02 02:03:43;;;;;;;102.00;32.15;;;-0.50;99.90;;;;;;5011947;28;20030;-69
2023/12/02 02:06:10;;;;;;;95.53;30.52;;;-0.50;99.90;;;;;;5011844;28;20030;-71
2023/12/02 02:08:36;;;;;;;93.40;30.63;;;-0.50;99.90;;;;;;5010471;28;20030;-69
2023/12/02 02:11:02;;;;;;;86.05;29.98;;;-0.50;99.90;;;;;;5012391;28;20038;-71
2023/12/02 02:13:28;;;;;;;93.25;30.35;;;-0.50;99.90;;;;;;5011418;28;20125;-72
2023/12/02 02:15:56;;;;;;;90.07;29.10;;;-0.50;99.90;;;;;;5011374;28;20025;-72
2023/12/02 02:18:22;;;;;;;94.10;30.63;;;-0.50;99.90;;;;;;5009799;28;20168;-72
2023/12/02 02:20:54;;;;;;;89.53;28.23;;;-0.50;99.90;;;;;;5010046;28;20395;-73
2023/12/02 02:23:21;;;;;;;91.13;29.75;;;-0.50;99.90;;;;;;5010395;28;20034;-71
2023/12/02 02:25:49;;;;;;;96.22;29.08;;;-0.50;99.90;;;;;;5010712;28;20034;-71
2023/12/02 02:28:21;;;;;;;93.78;30.33;;;-0.50;99.90;;;;;;5011322;28;20113;-71
2023/12/02 02:30:46;;;;;;;86.95;30.42;;;-0.40;99.90;;;;;;5011582;28;20022;-73
2023/12/02 02:33:12;;;;;;;96.47;31.08;;;-0.20;99.90;;;;;;5011673;28;20425;-73
2023/12/02 02:35:38;;;;;;;84.00;28.48;;;-0.20;99.90;;;;;;5010644;28;20026;-72
2023/12/02 02:38:04;;;;;;;94.97;29.85;;;-0.20;99.90;;;;;;5011343;28;20030;-71
2023/12/02 02:40:30;;;;;;;91.43;29.92;;;-0.20;99.90;;;;;;5011708;28;20044;-70
2023/12/02 02:42:56;;;;;;;84.85;29.30;;;-0.20;99.90;;;;;;5009824;28;20042;-70
2023/12/02 02:45:22;;;;;;;94.40;30.00;;;-0.30;99.90;;;;;;5015000;28;20061;-72
2023/12/02 02:47:48;;;;;;;90.75;30.60;;;-0.40;99.90;;;;;;5014806;28;20029;-71
2023/12/02 02:50:14;;;;;;;89.65;28.73;;;-0.40;99.90;;;;;;5015063;28;20022;-71
2023/12/02 02:52:40;;;;;;;91.65;29.30;;;-0.40;99.90;;;;;;5015267;28;20034;-72
2023/12/02 02:55:06;;;;;;;93.32;29.73;;;-0.40;99.90;;;;;;5013770;28;20444;-72
2023/12/02 02:57:32;;;;;;;92.22;30.80;;;-0.40;99.90;;;;;;5014889;28;20026;-71
2023/12/02 02:59:57;;;;;;;82.78;27.45;;;-0.40;99.90;;;;;;5014710;28;20117;-70
2023/12/02 03:02:23;;;;;;;90.32;29.02;;;-0.40;99.90;;;;;;5014715;28;20823;-71
2023/12/02 03:04:49;;;;;;;85.13;29.10;;;-0.40;99.90;;;;;;5013464;28;20030;-72
2023/12/02 03:07:14;;;;;;;94.97;29.25;;;-0.50;99.90;;;;;;5013431;28;20025;-71
2023/12/02 03:09:40;;;;;;;85.43;28.45;;;-0.50;99.90;;;;;;5014938;28;20088;-73
2023/12/02 03:12:06;;;;;;;82.72;28.25;;;-0.50;99.90;;;;;;5013295;28;20034;-73
2023/12/02 03:14:31;;;;;;;82.13;28.55;;;-0.50;99.90;;;;;;5013056;28;20050;-72
2023/12/02 03:16:58;;;;;;;98.30;29.55;;;-0.50;99.90;;;;;;5013461;28;20085;-72
2023/12/02 03:19:23;;;;;;;82.00;28.08;;;-0.50;99.90;;;;;;5013985;28;20018;-72
2023/12/02 03:21:49;;;;;;;87.35;29.83;;;-0.40;99.90;;;;;;5014047;28;20038;-72
2023/12/02 03:24:15;;;;;;;104.32;31.60;;;-0.50;99.90;;;;;;5013717;28;20033;-72
2023/12/02 03:26:42;;;;;;;89.07;30.25;;;-0.50;99.90;;;;;;5012889;28;20054;-73
2023/12/02 03:29:08;;;;;;;84.80;28.95;;;-0.40;99.90;;;;;;5012544;28;20088;-73
2023/12/02 03:31:33;;;;;;;85.93;29.27;;;-0.40;99.90;;;;;;5013262;28;20034;-73
2023/12/02 03:33:59;;;;;;;84.65;29.08;;;-0.40;99.90;;;;;;5012297;28;20034;-73
2023/12/02 03:36:25;;;;;;;85.07;28.40;;;-0.40;99.90;;;;;;5012501;28;20060;-72
2023/12/02 03:38:51;;;;;;;82.53;28.75;;;-0.40;99.90;;;;;;5014065;28;20524;-71
2023/12/02 03:41:16;;;;;;;85.10;29.15;;;-0.40;99.90;;;;;;5012989;28;20034;-70
2023/12/02 03:43:43;;;;;;;81.35;28.40;;;-0.40;99.90;;;;;;5013634;28;20034;-71
2023/12/02 03:46:09;;;;;;;82.22;27.58;;;-0.30;99.90;;;;;;5012575;28;20034;-72
2023/12/02 03:48:38;;;;;;;90.47;29.42;;;-0.30;99.90;;;;;;5013632;28;20023;-70
2023/12/02 03:51:04;;;;;;;82.50;27.90;;;-0.30;99.90;;;;;;5012405;28;20057;-72
2023/12/02 03:53:30;;;;;;;88.00;29.95;;;-0.30;99.90;;;;;;5014112;28;20053;-69
2023/12/02 03:55:56;;;;;;;85.03;28.23;;;-0.30;99.90;;;;;;5013408;28;20033;-70
2023/12/02 03:58:22;;;;;;;79.35;27.55;;;-0.30;99.90;;;;;;5012428;28;20493;-71
2023/12/02 04:00:48;;;;;;;80.97;28.85;;;-0.30;99.90;;;;;;5012069;28;20045;-72
2023/12/02 04:03:13;;;;;;;87.20;28.85;;;-0.30;99.90;;;;;;5013758;28;20051;-72
2023/12/02 04:05:39;;;;;;;84.20;26.95;;;-0.30;99.90;;;;;;5013480;28;20018;-73
2023/12/02 04:08:05;;;;;;;82.25;27.65;;;-0.30;99.90;;;;;;5013283;28;20049;-74
2023/12/02 04:10:30;;;;;;;84.47;27.67;;;-0.30;99.90;;;;;;5013439;28;20038;-72
2023/12/02 04:12:56;;;;;;;84.22;29.25;;;-0.30;99.90;;;;;;5011852;28;20192;-72
2023/12/02 04:15:21;;;;;;;91.38;30.60;;;-0.30;99.90;;;;;;5013274;28;20094;-71
2023/12/02 04:17:47;;;;;;;85.50;28.55;;;-0.30;99.90;;;;;;5013184;28;20026;-72
2023/12/02 04:20:15;;;;;;;79.13;28.17;;;-0.20;99.90;;;;;;5012182;28;20073;-71
2023/12/02 04:22:41;;;;;;;88.22;29.40;;;-0.30;99.90;;;;;;5011628;28;20410;-72
2023/12/02 04:25:07;;;;;;;80.72;27.17;;;-0.30;99.90;;;;;;5012873;28;20146;-73
2023/12/02 04:27:33;;;;;;;82.80;27.73;;;-0.20;99.90;;;;;;5012298;28;20030;-71
2023/12/02 04:29:58;;;;;;;91.15;29.45;;;-0.20;99.90;;;;;;5013276;28;20034;-71
2023/12/02 04:32:24;;;;;;;80.28;28.13;;;-0.20;99.90;;;;;;5011978;28;20025;-72
2023/12/02 04:34:50;;;;;;;83.82;29.30;;;-0.20;99.90;;;;;;5013240;28;20028;-71
2023/12/02 04:37:17;;;;;;;80.15;26.98;;;-0.20;99.90;;;;;;5013005;28;20040;-72
2023/12/02 04:39:43;;;;;;;85.20;29.35;;;-0.20;99.90;;;;;;5008874;28;20483;-72
2023/12/02 04:42:09;;;;;;;77.43;28.42;;;-0.20;99.90;;;;;;5012938;28;20037;-73
2023/12/02 04:44:35;;;;;;;93.35;29.10;;;-0.20;99.90;;;;;;5012776;28;20030;-72
2023/12/02 04:47:01;;;;;;;79.80;28.50;;;-0.20;99.90;;;;;;5013161;28;20030;-72
2023/12/02 04:49:26;;;;;;;81.55;27.52;;;-0.20;99.90;;;;;;5012870;28;20399;-71
2023/12/02 04:51:52;;;;;;;89.07;28.80;;;-0.20;99.90;;;;;;5011140;28;20031;-71
2023/12/02 04:54:19;;;;;;;78.13;26.75;;;-0.20;99.90;;;;;;5010742;28;20057;-72
2023/12/02 04:56:45;;;;;;;83.68;28.75;;;-0.20;99.90;;;;;;5012654;28;20029;-72
2023/12/02 04:59:11;;;;;;;87.57;28.45;;;-0.20;99.90;;;;;;5011785;28;20038;-74
2023/12/02 05:01:38;;;;;;;77.13;27.80;;;-0.20;99.90;;;;;;5011445;28;20034;-74
2023/12/02 05:04:05;;;;;;;81.53;26.90;;;-0.20;99.90;;;;;;5012823;28;20026;-73
2023/12/02 05:06:31;;;;;;;82.93;27.77;;;-0.10;99.90;;;;;;5012216;28;20754;-72
2023/12/02 05:08:57;;;;;;;85.07;28.83;;;-0.10;99.90;;;;;;5011957;28;20021;-69
2023/12/02 05:11:23;;;;;;;83.05;28.30;;;-0.10;99.90;;;;;;5012413;28;20042;-71
2023/12/02 05:13:50;;;;;;;85.70;27.67;;;-0.10;99.90;;;;;;5011067;28;20038;-72
2023/12/02 05:16:16;;;;;;;77.05;25.88;;;-0.20;99.90;;;;;;5012137;28;20467;-72
2023/12/02 05:18:42;;;;;;;81.50;28.85;;;-0.10;99.90;;;;;;5011133;28;20046;-72
2023/12/02 05:21:12;;;;;;;85.00;27.40;;;-0.10;99.90;;;;;;5011679;28;20042;-74
2023/12/02 05:23:41;;;;;;;77.28;27.58;;;-0.20;99.90;;;;;;5012311;28;20125;-72
2023/12/02 05:26:07;;;;;;;82.82;28.10;;;-0.20;99.90;;;;;;5011481;28;20038;-73
2023/12/02 05:28:33;;;;;;;81.25;27.92;;;-0.20;99.90;;;;;;5010646;28;20058;-73
2023/12/02 05:30:59;;;;;;;74.53;26.67;;;-0.20;99.90;;;;;;5009184;28;20022;-71
2023/12/02 05:33:24;;;;;;;74.43;26.42;;;-0.20;99.90;;;;;;5009908;28;20034;-71
2023/12/02 05:35:50;;;;;;;74.15;27.08;;;-0.20;99.90;;;;;;5009518;28;20052;-71
2023/12/02 05:38:16;;;;;;;81.70;26.25;;;-0.20;99.90;;;;;;5011961;28;20053;-71
2023/12/02 05:40:42;;;;;;;70.72;26.05;;;-0.20;99.90;;;;;;5012361;28;20025;-71
2023/12/02 05:43:08;;;;;;;72.63;25.95;;;-0.20;99.90;;;;;;5011810;28;20056;-72
2023/12/02 05:45:34;;;;;;;78.00;27.77;;;-0.20;99.90;;;;;;5011279;28;20136;-72
2023/12/02 05:47:59;;;;;;;75.22;26.10;;;-0.20;99.90;;;;;;5009980;28;20034;-71
2023/12/02 05:50:26;;;;;;;80.32;28.65;;;-0.20;99.90;;;;;;5011899;28;20058;-72
2023/12/02 05:52:52;;;;;;;75.57;26.92;;;-0.10;99.90;;;;;;5011132;28;20026;-71
2023/12/02 05:55:17;;;;;;;76.90;26.70;;;-0.10;99.90;;;;;;5011733;28;20045;-72
2023/12/02 05:57:46;;;;;;;75.20;26.50;;;-0.10;99.90;;;;;;5010491;28;20034;-72
2023/12/02 06:00:13;;;;;;;77.18;26.42;;;-0.20;99.90;;;;;;5007193;28;20084;-73
2023/12/02 06:02:39;;;;;;;80.95;26.33;;;-0.10;99.90;;;;;;5007937;28;20489;-72
2023/12/02 06:05:07;;;;;;;82.55;28.25;;;-0.10;99.90;;;;;;5006281;28;20084;-73
2023/12/02 06:07:32;;;;;;;81.15;27.17;;;-0.10;99.90;;;;;;5009591;28;20128;-72
2023/12/02 06:09:58;;;;;;;70.30;25.15;;;-0.10;99.90;;;;;;5009210;28;20026;-73
2023/12/02 06:12:24;;;;;;;75.95;27.88;;;-0.10;99.90;;;;;;5011346;28;20072;-74
2023/12/02 06:14:49;;;;;;;82.78;28.23;;;-0.10;99.90;;;;;;5010892;28;20026;-73
2023/12/02 06:17:15;;;;;;;83.70;28.10;;;-0.20;99.90;;;;;;5008241;28;20347;-72
2023/12/02 06:19:41;;;;;;;79.53;28.95;;;-0.10;99.90;;;;;;5013873;28;20089;-74
2023/12/02 06:22:06;;;;;;;77.13;26.23;;;-0.10;99.90;;;;;;5015249;28;20037;-72
2023/12/02 06:24:32;;;;;;;77.95;26.88;;;-0.10;99.90;;;;;;5015029;28;20019;-73
2023/12/02 06:26:57;;;;;;;86.38;27.45;;;-0.10;99.90;;;;;;5015309;28;20097;-73
2023/12/02 06:29:23;;;;;;;77.55;26.75;;;-0.10;99.90;;;;;;5014105;28;20034;-72
2023/12/02 06:31:50;;;;;;;78.25;26.85;;;-0.10;99.90;;;;;;5012899;28;20094;-73
2023/12/02 06:34:16;;;;;;;81.05;25.85;;;-0.10;99.90;;;;;;5014363;28;20115;-77
2023/12/02 06:36:42;;;;;;;76.38;26.05;;;-0.20;99.90;;;;;;5013777;28;20026;-73
2023/12/02 06:39:08;;;;;;;81.88;28.25;;;-0.20;99.90;;;;;;5010628;28;20022;-74
2023/12/02 06:41:34;;;;;;;83.20;26.65;;;-0.20;99.90;;;;;;5008666;28;20037;-73
2023/12/02 06:44:00;;;;;;;69.93;25.83;;;-0.20;99.90;;;;;;5010789;28;20093;-73
2023/12/02 06:46:26;;;;;;;77.05;26.83;;;-0.20;99.90;;;;;;5013012;28;20049;-73
2023/12/02 06:48:52;;;;;;;75.68;26.23;;;-0.20;99.90;;;;;;5013057;28;20027;-74
2023/12/02 06:51:17;;;;;;;79.75;27.23;;;-0.10;99.90;;;;;;5014306;28;20034;-72
2023/12/02 06:53:43;;;;;;;85.82;27.75;;;-0.10;99.90;;;;;;5012075;28;20034;-72
2023/12/02 06:56:21;;;;;;;77.80;26.38;;;-0.10;99.90;;;;;;5011793;28;20029;-72
2023/12/02 06:58:49;;;;;;;78.07;27.20;;;-0.10;99.90;;;;;;5012690;28;20133;-72
2023/12/02 07:01:23;;;;;;;75.57;26.98;;;-0.10;99.90;;;;;;5014088;28;20402;-72
2023/12/02 07:03:48;;;;;;;76.88;26.65;;;-0.10;99.90;;;;;;5012800;28;20064;-74
2023/12/02 07:06:15;;;;;;;85.60;27.38;;;-0.10;99.90;;;;;;5010612;28;20034;-74
2023/12/02 07:08:41;;;;;;;79.20;27.60;;;-0.10;99.90;;;;;;5013422;28;20044;-73
2023/12/02 07:11:06;;;;;;;79.70;26.92;;;-0.10;99.90;;;;;;5014205;28;20497;-73
2023/12/02 07:13:32;;;;;;;73.65;26.55;;;-0.10;99.90;;;;;;5014244;28;20060;-74
2023/12/02 07:15:57;;;;;;;79.57;27.42;;;-0.10;99.90;;;;;;5011304;28;20037;-72
2023/12/02 07:18:23;;;;;;;82.38;28.20;;;-0.10;99.90;;;;;;5013337;28;20052;-73
2023/12/02 07:20:48;;;;;;;82.63;27.33;;;-0.10;99.90;;;;;;5009503;28;20038;-73
2023/12/02 07:23:14;;;;;;;79.32;26.70;;;-0.10;99.90;;;;;;5012822;28;20068;-74
2023/12/02 07:25:40;;;;;;;83.05;27.17;;;-0.10;99.90;;;;;;5010471;28;20085;-72
2023/12/02 07:28:05;;;;;;;72.90;25.80;;;-0.10;99.90;;;;;;5007824;28;20042;-73
2023/12/02 07:30:31;;;;;;;81.80;27.90;;;-0.10;99.90;;;;;;5011467;28;20052;-71
2023/12/02 07:32:56;;;;;;;76.57;27.08;;;-0.10;99.90;;;;;;5007864;28;20019;-72
2023/12/02 07:35:22;;;;;;;85.20;29.02;;;-0.10;99.90;;;;;;5009652;28;20037;-72
2023/12/02 07:37:49;;;;;;;88.97;28.08;;;-0.10;99.90;;;;;;5016477;28;20125;-73
2023/12/02 07:40:14;;;;;;;84.72;28.67;;;-0.10;99.90;;;;;;5010692;28;20029;-73
2023/12/02 07:42:40;;;;;;;79.13;28.27;;;-0.10;99.90;;;;;;5012604;28;20124;-73
2023/12/02 07:45:06;;;;;;;81.00;27.70;;;-0.10;99.90;;;;;;5011408;28;20021;-72
2023/12/02 07:47:32;;;;;;;79.43;27.95;;;-0.10;99.90;;;;;;5012090;28;20072;-72
2023/12/02 07:49:57;;;;;;;85.10;28.73;;;-0.10;99.90;;;;;;5011063;28;20030;-73
2023/12/02 07:52:23;;;;;;;85.25;29.33;;;-0.10;99.90;;;;;;5004342;28;20031;-73
2023/12/02 07:54:48;;;;;;;92.25;28.90;;;-0.10;99.90;;;;;;5008025;28;20030;-73
2023/12/02 07:57:14;;;;;;;86.28;27.92;;;-0.10;99.90;;;;;;5009919;28;20033;-69
2023/12/02 07:59:40;;;;;;;85.13;29.75;;;-0.10;99.90;;;;;;5007303;28;20030;-74
2023/12/02 08:02:06;;;;;;;90.28;29.13;;;-0.10;99.90;;;;;;5007042;28;20042;-73
2023/12/02 08:04:31;;;;;;;93.15;30.00;;;-0.10;99.90;;;;;;5012518;28;20141;-72
2023/12/02 08:06:57;;;;;;;84.07;28.92;;;-0.10;99.90;;;;;;5011609;28;20035;-73
2023/12/02 08:09:22;;;;;;;87.03;30.52;;;-0.10;99.90;;;;;;5003957;28;20031;-73
2023/12/02 08:11:48;;;;;;;93.78;30.10;;;-0.10;99.90;;;;;;5006466;28;20018;-72
2023/12/02 08:14:15;;;;;;;89.82;29.08;;;0.00;99.90;;;;;;5010263;28;20045;-72
2023/12/02 08:16:41;;;;;;;91.32;29.95;;;0.00;99.90;;;;;;5008379;28;20022;-74
2023/12/02 08:19:06;;;;;;;86.72;28.45;;;0.00;99.90;;;;;;5010230;28;20037;-72
2023/12/02 08:21:32;;;;;;;83.35;28.75;;;0.00;99.90;;;;;;5009329;28;20041;-72
2023/12/02 08:23:58;;;;;;;93.80;28.92;;;0.00;99.90;;;;;;5012509;28;20057;-71
2023/12/02 08:26:24;;;;;;;95.38;30.52;;;0.00;99.90;;;;;;5011847;28;20438;-72
2023/12/02 08:28:50;;;;;;;88.43;29.27;;;0.10;99.90;;;;;;5013159;28;20030;-72
2023/12/02 08:31:15;;;;;;;91.32;29.25;;;0.00;99.90;;;;;;5012313;28;20395;-69
2023/12/02 08:33:41;;;;;;;81.25;27.77;;;0.10;99.90;;;;;;5013518;28;20029;-72
2023/12/02 08:36:07;;;;;;;84.45;27.77;;;0.10;99.90;;;;;;5011102;28;20070;-72
2023/12/02 08:38:33;;;;;;;86.05;28.65;;;0.10;99.90;;;;;;5013215;28;20584;-73
2023/12/02 08:40:58;;;;;;;86.57;26.88;;;0.10;99.90;;;;;;5010766;28;20030;-71
2023/12/02 08:43:24;;;;;;;81.15;26.08;;;0.10;99.90;;;;;;5012093;28;20029;-70
2023/12/02 08:45:49;;;;;;;77.97;26.05;;;0.10;99.90;;;;;;5008277;28;20018;-71
2023/12/02 08:48:15;;;;;;;85.95;27.70;;;0.10;99.90;;;;;;5011486;28;20030;-72
2023/12/02 08:50:41;;;;;;;78.55;26.15;;;0.10;99.90;;;;;;5011668;28;20072;-71
2023/12/02 08:53:07;;;;;;;75.90;26.42;;;0.10;99.90;;;;;;5011007;28;20360;-72
2023/12/02 08:55:33;;;;;;;76.25;27.40;;;0.10;99.90;;;;;;5012379;28;20030;-72
2023/12/02 08:57:58;;;;;;;81.40;26.90;;;0.10;99.90;;;;;;5009811;28;20033;-69
2023/12/02 09:00:24;;;;;;;85.70;27.75;;;0.10;99.90;;;;;;5010456;28;20022;-71
2023/12/02 09:02:50;;;;;;;79.85;29.25;;;0.10;99.90;;;;;;5008887;28;20034;-71
2023/12/02 09:05:19;;;;;;;88.43;27.95;;;0.10;99.90;;;;;;5007501;28;20033;-74
2023/12/02 09:07:44;;;;;;;80.90;27.05;;;0.10;99.90;;;;;;5003863;28;20053;-71
2023/12/02 09:10:10;;;;;;;85.40;28.80;;;0.10;99.90;;;;;;5006551;28;20037;-71
2023/12/02 09:12:35;;;;;;;89.75;29.02;;;0.10;99.90;;;;;;5011079;28;20033;-71
2023/12/02 09:15:21;;;;;;;85.60;29.23;;;0.10;99.90;;;;;;5010914;28;20180;-72
2023/12/02 09:18:07;;;;;;;92.80;30.38;;;0.10;99.90;;;;;;5002539;28;20740;-71
2023/12/02 09:20:47;;;;;;;87.15;30.25;;;0.10;99.90;;;;;;5009037;28;20029;-72
2023/12/02 09:23:15;;;;;;;88.07;27.85;;;0.20;99.90;;;;;;5011344;28;20026;-73
2023/12/02 09:25:42;;;;;;;84.20;28.13;;;0.20;99.90;;;;;;5009817;28;20511;-72
2023/12/02 09:28:10;;;;;;;92.55;29.52;;;0.20;99.90;;;;;;5008278;28;20025;-71
2023/12/02 09:30:37;;;;;;;94.97;30.05;;;0.30;99.90;;;;;;5009699;28;20102;-73
2023/12/02 09:33:06;;;;;;;94.15;31.17;;;0.30;99.90;;;;;;5009982;28;20021;-70
2023/12/02 09:35:33;;;;;;;81.22;28.33;;;0.30;99.90;;;;;;5006976;28;20037;-73
2023/12/02 09:38:03;;;;;;;87.53;29.85;;;0.40;99.90;;;;;;5010793;28;20030;-71
2023/12/02 09:40:54;;;;;;;84.85;29.15;;;0.40;99.90;;;;;;5009630;28;20030;-73
2023/12/02 09:43:27;;;;;;;83.20;29.00;;;0.50;99.90;;;;;;5011149;28;20042;-73
2023/12/02 09:45:53;;;;;;;89.20;28.58;;;0.50;99.90;;;;;;5011419;28;20029;-71
2023/12/02 09:48:28;;;;;;;80.05;28.50;;;0.50;99.90;;;;;;5008074;28;20033;-73
2023/12/02 09:51:21;;;;;;;81.03;28.10;;;0.50;99.90;;;;;;5010364;28;20411;-73
2023/12/02 09:54:01;;;;;;;79.80;26.52;;;0.60;99.90;;;;;;5004020;28;20135;-70
2023/12/02 09:56:34;;;;;;;73.60;25.98;;;0.50;99.90;;;;;;5010895;28;20038;-70
2023/12/02 09:59:21;;;;;;;77.22;26.90;;;0.50;99.90;;;;;;5007220;28;20011;-72
2023/12/02 10:01:55;;;;;;;83.65;28.58;;;0.60;99.90;;;;;;5010318;28;20096;-71
2023/12/02 10:04:51;;;;;;;77.78;27.48;;;0.60;99.90;;;;;;5011432;28;21371;-71
2023/12/02 10:07:38;;;;;;;67.38;24.30;;;0.60;99.90;;;;;;5010526;28;20089;-71
2023/12/02 10:10:10;;;;;;;75.38;27.05;;;0.60;99.90;;;;;;5012297;28;20022;-70
2023/12/02 10:12:41;;;;;;;69.05;25.40;;;0.60;99.90;;;;;;5010044;28;20034;-73
2023/12/02 10:15:11;;;;;;;73.30;25.83;;;0.60;99.90;;;;;;5009650;28;20034;-71
2023/12/02 10:18:00;;;;;;;70.68;25.50;;;0.70;99.90;;;;;;5012182;28;20022;-73
2023/12/02 10:20:28;;;;;;;71.13;24.75;;;0.80;99.90;;;;;;5011519;28;20616;-73
2023/12/02 10:23:10;;;;;;;71.68;25.15;;;0.90;99.90;;;;;;5005359;28;20088;-73
2023/12/02 10:25:45;;;;;;;68.47;25.58;;;0.80;99.90;;;;;;5009116;28;20383;-72
2023/12/02 10:28:36;;;;;;;63.65;24.00;;;0.90;99.90;;;;;;5003293;28;20030;-73
2023/12/02 10:31:05;;;;;;;60.08;22.73;;;0.90;99.90;;;;;;5011230;28;20065;-72
2023/12/02 10:33:44;;;;;;;54.92;21.45;;;0.90;99.90;;;;;;5003948;28;20053;-71
2023/12/02 10:36:11;;;;;;;59.47;22.08;;;0.80;99.90;;;;;;5008297;28;20391;-73
2023/12/02 10:38:45;;;;;;;62.22;22.23;;;0.90;99.90;;;;;;5011457;28;20020;-72
2023/12/02 10:41:18;;;;;;;54.17;21.40;;;0.90;99.90;;;;;;5008941;28;20034;-73
2023/12/02 10:43:46;;;;;;;53.65;21.35;;;0.90;99.90;;;;;;5010557;28;20027;-74
2023/12/02 10:46:12;;;;;;;60.65;22.15;;;0.90;99.90;;;;;;5009932;28;20033;-72
2023/12/02 10:48:42;;;;;;;58.15;22.17;;;1.00;99.90;;;;;;5008450;28;20026;-71
2023/12/02 10:51:09;;;;;;;61.25;23.30;;;1.10;99.90;;;;;;5009627;28;20034;-71
2023/12/02 10:53:36;;;;;;;57.70;22.13;;;1.10;99.90;;;;;;5009806;28;20033;-72
2023/12/02 10:56:10;;;;;;;67.88;25.90;;;1.10;99.90;;;;;;5009191;28;20027;-72
2023/12/02 10:58:39;;;;;;;58.70;23.50;;;1.10;99.90;;;;;;5008223;28;20019;-74
2023/12/02 11:01:07;;;;;;;60.80;24.17;;;1.10;99.90;;;;;;5010185;28;20055;-73
2023/12/02 11:03:59;;;;;;;55.63;22.38;;;1.00;99.90;;;;;;5009405;28;20032;-72
2023/12/02 11:06:32;;;;;;;67.32;24.10;;;1.00;99.90;;;;;;5012415;28;20093;-71
2023/12/02 11:09:06;;;;;;;62.33;22.50;;;1.10;99.90;;;;;;5003742;28;20018;-72
2023/12/02 11:11:38;;;;;;;59.60;22.98;;;1.10;99.90;;;;;;5006101;28;20031;-72
2023/12/02 11:14:16;;;;;;;53.60;21.85;;;1.20;99.90;;;;;;5006487;28;20030;-71
2023/12/02 11:16:54;;;;;;;58.60;21.98;;;1.20;99.90;;;;;;5011857;28;20022;-73
2023/12/02 11:19:46;;;;;;;57.75;22.85;;;1.20;99.90;;;;;;5013749;28;20023;-71
2023/12/02 11:22:31;;;;;;;54.92;22.20;;;1.20;99.90;;;;;;5011562;28;20038;-73
2023/12/02 11:25:09;;;;;;;62.92;24.10;;;1.20;99.90;;;;;;5009531;28;20065;-71
2023/12/02 11:28:11;;;;;;;59.70;23.33;;;1.10;99.90;;;;;;5012694;28;20015;-72
2023/12/02 11:30:45;;;;;;;66.57;26.00;;;1.20;99.90;;;;;;5011217;28;20119;-71
2023/12/02 11:33:40;;;;;;;65.70;25.80;;;1.20;99.90;;;;;;5001950;28;20053;-72
2023/12/02 11:36:25;;;;;;;60.45;23.35;;;1.20;99.90;;;;;;5011226;28;20037;-73
2023/12/02 11:39:11;;;;;;;64.30;24.35;;;1.20;99.90;;;;;;5006989;28;20486;-72
2023/12/02 11:41:46;;;;;;;62.95;24.83;;;1.20;99.90;;;;;;5011341;28;20042;-73
2023/12/02 11:44:30;;;;;;;63.83;24.70;;;1.20;99.90;;;;;;5007029;28;20079;-73
2023/12/02 11:47:14;;;;;;;67.50;25.27;;;1.20;99.90;;;;;;5003272;28;20069;-73
2023/12/02 11:50:02;;;;;;;60.55;24.40;;;1.30;99.90;;;;;;5009603;28;20041;-74
2023/12/02 11:53:07;;;;;;;62.10;25.00;;;1.30;99.90;;;;;;5008680;28;20038;-71
2023/12/02 11:55:42;;;;;;;59.03;23.40;;;1.30;99.90;;;;;;4995099;28;20057;-72
2023/12/02 11:58:19;;;;;;;69.00;27.40;;;1.30;99.90;;;;;;5010493;28;20553;-70
2023/12/02 12:00:59;;;;;;;60.97;24.83;;;1.30;99.90;;;;;;5003324;28;20965;-73
2023/12/02 12:03:49;;;;;;;61.38;23.35;;;1.30;99.90;;;;;;5012164;28;20042;-71
2023/12/02 12:06:24;;;;;;;59.20;22.38;;;1.30;99.90;;;;;;5012728;28;20085;-72
2023/12/02 12:09:14;;;;;;;61.25;23.58;;;1.30;99.90;;;;;;5010486;28;20030;-72
2023/12/02 12:11:41;;;;;;;84.55;30.88;;;1.20;99.90;;;;;;5009870;28;20037;-72
2023/12/02 12:14:08;;;;;;;59.35;21.88;;;1.20;99.90;;;;;;5010530;28;20147;-72
2023/12/02 12:16:34;;;;;;;108.72;38.53;;;1.20;99.90;;;;;;5008694;28;20033;-71
2023/12/02 12:19:00;;;;;;;65.70;27.60;;;1.20;99.90;;;;;;5011815;28;20030;-70
2023/12/02 12:21:26;;;;;;;64.43;25.33;;;1.30;99.90;;;;;;5010204;28;20053;-71
2023/12/02 12:23:51;;;;;;;55.67;23.58;;;1.30;99.90;;;;;;5005854;28;20434;-73
2023/12/02 12:26:17;;;;;;;57.30;22.75;;;1.30;99.90;;;;;;5007542;28;20050;-71
2023/12/02 12:28:43;;;;;;;62.75;24.23;;;1.30;99.90;;;;;;5008517;28;20022;-71
2023/12/02 12:31:10;;;;;;;54.88;20.95;;;1.30;99.90;;;;;;5008526;28;20053;-71
2023/12/02 12:33:39;;;;;;;54.78;21.48;;;1.30;99.90;;;;;;5007854;28;20049;-72
2023/12/02 12:36:10;;;;;;;52.80;20.30;;;1.40;99.90;;;;;;5009790;28;20022;-72
2023/12/02 12:38:37;;;;;;;49.35;19.80;;;1.40;99.90;;;;;;5009090;28;20038;-73